AirNav   Pilot Hours Calculator
 
 1160 users online  

04VG Manquin Flight Park
Manquin, Virginia, USA

GOING TO MANQUIN?


FAA INFORMATION EFFECTIVE 08 OCTOBER 2020

Location

FAA Identifier: 04VG
Lat/Long: 37-42-51.9600N 077-12-42.5400W
37-42.866000N 077-12.709000W
37.7144333,-77.2118167
(estimated)
Elevation: 50 ft. / 15 m (estimated)
From city: 4 miles N of MANQUIN, VA
Time zone: UTC -4 (UTC -5 during Standard Time)
Zip code: 23106

Ultralight Flight Park Operations

Ultralight Flight Park use: Private use. Permission required prior to landing
Activation date: 01/2004
Control tower: no
ARTCC: WASHINGTON CENTER
FSS: LEESBURG FLIGHT SERVICE STATION
Attendance: DAYLIGHT HOURS
Wind indicator: yes
Segmented circle: no

Ultralight Flight Park Communications

WX ASOS at OFP (11 nm W): 119.025 (804-752-2902)
WX AWOS-3 at W96 (13 nm S): 119.875 (804-932-8863)
WX ASOS at RIC (14 nm S): PHONE 804-236-1091
WX AWOS-3 at XSA (17 nm NE): 125.775 (804-445-8724)

Nearby radio navigation aids

VOR radial/distance  VOR name  Freq  Var
RICr031/13.7RICHMOND VORTAC114.1009W
HPWr355/23.6HOPEWELL VORTAC112.0006W
HCMr311/28.6HARCUM VORTAC108.8007W
FAKr075/31.3FLAT ROCK VORTAC113.3006W
BRVr179/37.9BROOKE VORTAC114.5009W

 
NDB name  Hdg/Dist  Freq  Var  ID
SHANNON171/35.023710WEZF . --.. ..-.

Ultralight Flight Park Services

Runway Information

Runway 1/19

Dimensions: 3500 x 80 ft. / 1067 x 24 m
Surface: turf, in fair condition
RUNWAY 1  RUNWAY 19
Traffic pattern: leftleft

Runway 11/29

Dimensions: 1800 x 70 ft. / 549 x 21 m
Surface: turf, in fair condition
RUNWAY 11  RUNWAY 29
Traffic pattern: leftleft

Ultralight Flight Park Ownership and Management from official FAA records

Ownership: Privately-owned
Owner: MANQUIN FLIGHT PARK INC
P. O. BOX 159
MANQUIN, VA 23106
Phone 804-514-5843
Manager: RAWLING G. DAVENPORT JR.
P. O. BOX 159
MANQUIN, VA 23106
Phone 804-514-5843

Ultralight Flight Park Operational Statistics

Aircraft based on the field: 30
Single engine airplanes: 4
Gliders airplanes: 25
Ultralights: 1
    

Additional Remarks

FOR CD CTC WASHINGTON ARTCC AT 703-771-3587.

Instrument Procedures

There are no published instrument procedures at 04VG.

Some nearby airports with instrument procedures:

KOFP - Hanover County Municipal Airport (11 nm W)
W96 - New Kent County Airport (13 nm S)
KRIC - Richmond International Airport (14 nm S)
KXSA - Tappahannock-Essex County Airport (17 nm NE)
KFCI - Richmond Executive Airport-Chesterfield County (24 nm SW)
 
Loc | Ops | Rwys | IFR | FBO | Links
Com | Nav | Svcs | Stats | Notes
Area around 04VG (Manquin Flight Park)
 
Road maps at: MapQuest Bing Google
 
Aerial photo
WARNING: Photo may not be current or correct
Aerial photo of 04VG (Manquin Flight Park)
Photo taken 30-Apr-2018
looking southwest.

Do you have a better or more recent aerial photo of Manquin Flight Park that you would like to share? If so, please send us your photo.

 
Sectional chart

 
Airport distance calculator
Flying to Manquin Flight Park? Find the distance to fly.

From to 04VG

Sunrise and sunset
Times for 21-Oct-2020
 Local
(UTC-4)
 Zulu
(UTC)
Morning civil twilight06:5810:58
Sunrise07:2511:25
Sunset18:2222:22
Evening civil twilight18:4822:48

Current date and time
Zulu (UTC)  21-Oct-2020 23:24:44
Local (UTC-4)  21-Oct-2020 19:24:44
 
METAR
KOFP 
11nm W 
212254Z AUTO 00000KT 10SM CLR 21/19 A3022 RMK AO2 SLP231 T02110194
KRIC 
13nm SW 
212254Z 14007KT 10SM FEW030 FEW055 SCT300 23/19 A3020 RMK AO2 SLP229 T02280194
KW96 
13nm S 
212255Z AUTO 00000KT 10SM CLR 22/20 A3020 RMK AO1 T02220197
KXSA 
17nm NE 
212255Z AUTO 00000KT 10SM CLR 20/20 A3021 RMK AO2 T02000200
TAF
KRIC 
13nm SW 
211756Z 2118/2218 21005KT P6SM SCT040 FM212300 16004KT P6SM FEW200 FM220800 00000KT 3SM BR BKN003 FM221400 00000KT P6SM BKN030 FM221600 16004KT P6SM SCT040
NOTAMs
Click for the latest NOTAMs
NOTAMs are issued by the DoD/FAA and will open in a separate window not controlled by AirNav.

 

 
 

Would you like to see your business listed on this page?

 If your business provides an interesting product or service to pilots, flight crews, aircraft, or users of the Manquin Flight Park, you should consider listing it here.  To start the listing process, click on the button below
 
Add a business
 

Other Pages about Manquin Flight Park

Update a link
 
Copyright © AirNav, LLC. All rights reserved. Privacy Policy  Contact